Time;durP1;ratioP1;P1;durP2;ratioP2;P2;SDS_P1;SDS_P2;PMS_P1;PMS_P2;Temp;Humidity;BMP_temperature;BMP_pressure;BME280_temperature;BME280_humidity;BME280_pressure;Samples;Min_cycle;Max_cycle;Signal;HPM_P1;HPM_P2
2022/01/16 00:08:56;;;;;;;29.90;23.65;;;3.90;81.80;;;;;;10827889;33;20415;-73
2022/01/16 00:14:58;;;;;;;41.33;30.10;;;3.80;81.80;;;;;;10827728;32;20047;-73
2022/01/16 00:21:00;;;;;;;40.67;27.55;;;3.80;81.80;;;;;;10826597;33;20043;-73
2022/01/16 00:27:22;;;;;;;31.40;25.60;;;3.80;81.80;;;;;;10826978;32;20040;-73
2022/01/16 00:33:24;;;;;;;35.38;27.23;;;3.70;81.80;;;;;;10827269;33;20032;-73
2022/01/16 00:39:27;;;;;;;34.38;28.20;;;3.70;81.80;;;;;;10827256;33;20051;-73
2022/01/16 00:45:33;;;;;;;36.55;27.98;;;3.70;81.90;;;;;;10826835;33;20028;-73
2022/01/16 00:51:36;;;;;;;37.42;28.30;;;3.70;81.90;;;;;;10826667;33;20032;-73
2022/01/16 00:57:38;;;;;;;39.60;27.13;;;3.70;81.90;;;;;;10825731;32;20351;-70
2022/01/16 01:03:45;;;;;;;34.70;26.83;;;3.70;81.80;;;;;;10849776;32;20031;-73
2022/01/16 01:09:47;;;;;;;36.38;26.42;;;3.60;81.80;;;;;;10863214;32;20047;-73
2022/01/16 01:15:58;;;;;;;39.10;29.05;;;3.60;81.80;;;;;;10863054;32;20020;-73
2022/01/16 01:22:04;;;;;;;39.67;30.23;;;3.40;81.80;;;;;;10862813;32;20396;-73
2022/01/16 01:28:11;;;;;;;32.45;24.90;;;3.40;81.90;;;;;;10862668;32;20107;-73
2022/01/16 01:34:14;;;;;;;31.33;24.83;;;3.40;81.80;;;;;;10849356;32;20427;-73
2022/01/16 01:40:24;;;;;;;28.62;24.10;;;3.50;81.80;;;;;;10862267;32;20065;-74
2022/01/16 01:52:48;;;;;;;36.90;26.75;;;3.30;81.70;;;;;;10788303;33;20020;-73
2022/01/16 01:58:52;;;;;;;29.37;22.65;;;3.30;81.80;;;;;;10787990;33;20047;-74
2022/01/16 02:04:55;;;;;;;32.10;25.05;;;3.30;81.80;;;;;;10787924;33;20024;-73
2022/01/16 02:11:01;;;;;;;38.65;29.17;;;3.20;81.80;;;;;;10787286;33;20055;-74
2022/01/16 02:36:05;;;;;;;32.28;24.40;;;3.10;81.90;;;;;;10773550;33;20029;-74
2022/01/16 02:42:11;;;;;;;37.90;31.80;;;3.10;81.90;;;;;;10787139;33;20020;-74
2022/01/16 02:48:13;;;;;;;44.03;31.92;;;3.10;81.80;;;;;;10787072;33;20047;-73
2022/01/16 02:54:15;;;;;;;39.78;26.80;;;3.10;81.90;;;;;;10786799;33;20024;-74
2022/01/16 03:00:19;;;;;;;33.67;23.05;;;2.90;81.80;;;;;;10786746;33;20025;-74
2022/01/16 03:06:27;;;;;;;28.05;21.27;;;2.80;82.00;;;;;;10786689;33;20012;-73
2022/01/16 03:12:29;;;;;;;28.75;19.80;;;2.70;82.10;;;;;;10773394;33;20540;-74
2022/01/16 03:24:52;;;;;;;28.20;21.12;;;2.70;82.40;;;;;;10790025;33;20051;-74
2022/01/16 03:31:04;;;;;;;31.30;26.90;;;2.80;82.20;;;;;;10789297;33;20328;-73
2022/01/16 03:37:07;;;;;;;25.20;20.08;;;2.80;82.10;;;;;;10792050;33;20028;-74
2022/01/16 03:43:13;;;;;;;27.62;20.40;;;2.80;82.10;;;;;;10778829;33;20033;-70
2022/01/16 03:49:19;;;;;;;26.75;20.37;;;2.80;82.10;;;;;;10791063;33;20409;-71
2022/01/16 03:55:21;;;;;;;28.98;22.15;;;2.80;82.10;;;;;;10789051;33;20024;-71
2022/01/16 04:01:24;;;;;;;25.77;18.10;;;2.70;82.20;;;;;;10791325;33;20055;-71
2022/01/16 04:07:31;;;;;;;23.73;17.48;;;2.70;82.30;;;;;;10791290;33;20401;-71
2022/01/16 04:13:40;;;;;;;25.88;19.87;;;2.70;82.20;;;;;;10791095;33;20063;-71
2022/01/16 04:19:45;;;;;;;30.37;18.17;;;2.70;82.10;;;;;;10790913;33;20321;-71
2022/01/16 04:25:48;;;;;;;24.25;16.90;;;2.70;82.10;;;;;;10790866;33;20286;-71
2022/01/16 04:31:50;;;;;;;25.77;18.27;;;2.70;82.10;;;;;;10790337;32;20024;-71
2022/01/16 04:37:53;;;;;;;24.63;17.05;;;2.70;82.20;;;;;;10790471;33;20333;-71
2022/01/16 04:43:55;;;;;;;27.25;19.70;;;2.70;82.10;;;;;;10790269;33;20043;-71
2022/01/16 04:50:22;;;;;;;27.55;21.02;;;2.70;82.10;;;;;;10789504;33;20068;-74
2022/01/16 04:56:25;;;;;;;26.90;18.92;;;2.70;82.40;;;;;;10788591;33;20020;-74
2022/01/16 05:02:27;;;;;;;29.83;22.42;;;2.70;82.60;;;;;;10785929;33;20033;-74
2022/01/16 05:08:30;;;;;;;27.75;21.20;;;2.70;82.70;;;;;;10789490;33;20029;-74
2022/01/16 05:20:54;;;;;;;20.52;16.15;;;2.70;82.60;;;;;;10789089;33;20420;-73
2022/01/16 05:26:56;;;;;;;20.60;13.35;;;2.60;82.50;;;;;;10775475;33;20041;-74
2022/01/16 05:32:58;;;;;;;19.15;13.82;;;2.50;82.60;;;;;;10775783;33;20025;-74
2022/01/16 05:39:01;;;;;;;15.60;12.07;;;2.50;82.70;;;;;;10788558;33;20047;-74
2022/01/16 05:45:04;;;;;;;14.20;11.12;;;2.40;82.80;;;;;;10787901;33;20427;-74
2022/01/16 05:51:06;;;;;;;16.45;12.57;;;2.40;82.80;;;;;;10788209;33;20205;-74
2022/01/16 05:57:09;;;;;;;14.20;10.77;;;2.40;82.70;;;;;;10788098;33;20074;-74
2022/01/16 06:03:11;;;;;;;15.48;10.35;;;2.40;82.70;;;;;;10788026;33;20024;-74
2022/01/16 06:09:13;;;;;;;16.80;12.07;;;2.40;82.80;;;;;;10787884;33;20411;-73
2022/01/16 06:15:16;;;;;;;22.20;15.13;;;2.40;82.80;;;;;;10787857;33;20481;-73
2022/01/16 06:21:20;;;;;;;21.45;15.02;;;2.50;82.80;;;;;;10786347;33;20025;-74
2022/01/16 06:27:23;;;;;;;19.62;14.02;;;2.50;83.00;;;;;;10787156;33;20032;-73
2022/01/16 06:33:25;;;;;;;23.10;15.02;;;2.50;82.90;;;;;;10783248;33;20047;-73
2022/01/16 06:39:29;;;;;;;19.98;14.55;;;2.40;82.80;;;;;;10787213;33;20028;-74
2022/01/16 06:45:40;;;;;;;18.20;13.07;;;2.40;82.80;;;;;;10787095;33;20025;-74
2022/01/16 06:51:54;;;;;;;21.35;15.77;;;2.40;82.80;;;;;;10774007;33;20051;-74
2022/01/16 06:58:20;;;;;;;19.90;13.10;;;2.40;82.80;;;;;;10792944;33;20532;-74
2022/01/16 07:04:22;;;;;;;17.42;13.02;;;2.30;82.70;;;;;;10793122;33;20017;-73
2022/01/16 07:10:24;;;;;;;17.92;13.02;;;2.20;82.80;;;;;;10792757;33;20032;-73
2022/01/16 07:16:26;;;;;;;15.45;11.73;;;2.20;82.80;;;;;;10788543;33;20025;-74
2022/01/16 07:22:29;;;;;;;20.95;16.33;;;2.20;82.90;;;;;;10792459;33;20019;-74
2022/01/16 07:28:31;;;;;;;15.10;11.43;;;2.20;83.00;;;;;;10777190;33;20036;-74
2022/01/16 07:34:33;;;;;;;20.85;13.27;;;2.30;82.90;;;;;;10792246;33;20028;-74
2022/01/16 07:40:38;;;;;;;14.57;11.20;;;2.30;82.90;;;;;;10788455;33;20316;-73
2022/01/16 07:46:41;;;;;;;16.12;11.05;;;2.40;82.80;;;;;;10791618;33;20313;-73
2022/01/16 07:52:43;;;;;;;16.27;10.45;;;2.40;82.80;;;;;;10791520;33;20054;-73
2022/01/16 07:58:46;;;;;;;17.90;13.00;;;2.50;82.80;;;;;;10787909;33;20028;-74
2022/01/16 08:04:48;;;;;;;16.17;11.73;;;2.50;82.90;;;;;;10790792;33;20025;-73
2022/01/16 08:10:50;;;;;;;17.45;11.23;;;2.60;82.90;;;;;;10779937;33;20028;-73
2022/01/16 08:16:56;;;;;;;14.65;10.73;;;2.70;82.90;;;;;;10790664;33;20295;-73
2022/01/16 08:22:58;;;;;;;14.55;10.38;;;2.70;82.70;;;;;;10786648;33;20043;-73
2022/01/16 08:29:01;;;;;;;20.48;16.10;;;2.80;82.60;;;;;;10777697;33;20063;-73
2022/01/16 08:35:26;;;;;;;23.95;18.48;;;2.90;82.60;;;;;;10790247;33;20062;-73
2022/01/16 08:41:32;;;;;;;21.67;17.23;;;3.00;82.40;;;;;;10790187;33;20337;-73
2022/01/16 08:47:34;;;;;;;36.95;23.95;;;3.10;82.30;;;;;;10789915;33;20087;-73
2022/01/16 08:53:36;;;;;;;22.02;16.60;;;3.20;82.20;;;;;;10789035;33;20063;-73
2022/01/16 08:59:39;;;;;;;18.65;14.75;;;3.30;82.10;;;;;;10789685;33;20042;-73
2022/01/16 09:05:41;;;;;;;24.10;15.77;;;3.40;82.00;;;;;;10789550;33;20055;-73
2022/01/16 09:11:43;;;;;;;26.73;18.92;;;3.60;81.90;;;;;;10784595;33;20036;-74
2022/01/16 09:17:46;;;;;;;29.58;21.45;;;3.70;81.80;;;;;;10789116;33;20024;-74
2022/01/16 09:23:52;;;;;;;18.90;14.55;;;3.90;81.70;;;;;;10789024;33;20016;-74
2022/01/16 09:29:54;;;;;;;24.52;15.45;;;4.10;81.60;;;;;;10785744;33;20082;-74
2022/01/16 09:35:57;;;;;;;22.90;17.15;;;4.10;81.60;;;;;;10788255;33;20028;-73
2022/01/16 09:42:00;;;;;;;23.38;17.20;;;4.30;81.30;;;;;;10410519;27;12154384;-74
2022/01/16 09:48:06;;;;;;;27.15;20.50;;;4.50;81.10;;;;;;10709334;33;20055;-74
2022/01/16 09:54:09;;;;;;;21.55;15.98;;;4.60;81.00;;;;;;10712180;33;20025;-73
2022/01/16 10:00:15;;;;;;;29.67;23.33;;;4.80;80.90;;;;;;10711290;33;20034;-74
2022/01/16 10:06:22;;;;;;;26.95;19.45;;;4.90;80.70;;;;;;10688293;33;20055;-73
2022/01/16 10:12:54;;;;;;;29.15;23.15;;;5.10;80.60;;;;;;10751274;33;20068;-73
2022/01/16 10:18:58;;;;;;;26.48;19.30;;;5.20;80.50;;;;;;10751219;33;20411;-74
2022/01/16 10:25:02;;;;;;;26.12;19.73;;;5.40;80.30;;;;;;10748322;33;20043;-74
2022/01/16 10:31:27;;;;;;;26.75;20.60;;;5.60;80.10;;;;;;10755503;32;20298;-74
2022/01/16 10:37:30;;;;;;;24.20;17.02;;;5.70;79.80;;;;;;10757121;33;20052;-73
2022/01/16 10:43:42;;;;;;;29.75;23.30;;;5.90;79.60;;;;;;10756326;33;20055;-74
2022/01/16 10:50:02;;;;;;;25.92;18.45;;;6.10;79.00;;;;;;10756710;33;20060;-74
2022/01/16 10:56:04;;;;;;;35.28;28.52;;;6.30;78.20;;;;;;10756715;33;20032;-74
2022/01/16 11:02:08;;;;;;;33.35;24.27;;;6.50;78.10;;;;;;10756672;33;20020;-72
2022/01/16 11:08:19;;;;;;;21.67;16.40;;;6.60;77.80;;;;;;10752175;33;20056;-74
2022/01/16 11:14:23;;;;;;;19.33;14.73;;;6.80;77.50;;;;;;10754530;33;20032;-74
2022/01/16 11:20:33;;;;;;;19.45;16.25;;;7.00;77.10;;;;;;10755614;33;20056;-71
2022/01/16 11:26:36;;;;;;;23.15;17.05;;;7.20;76.50;;;;;;10753496;33;20392;-73
2022/01/16 11:32:38;;;;;;;25.45;18.55;;;7.50;76.00;;;;;;10755873;33;20029;-72
2022/01/16 11:38:57;;;;;;;25.02;18.08;;;7.80;75.70;;;;;;10754726;33;20017;-73
2022/01/16 11:45:18;;;;;;;27.85;20.35;;;8.10;75.20;;;;;;10754863;33;20021;-71
2022/01/16 11:57:36;;;;;;;21.52;14.73;;;8.40;74.40;;;;;;10753635;33;20056;-71
2022/01/16 12:03:39;;;;;;;20.40;16.25;;;8.60;74.10;;;;;;10754491;33;20025;-72
2022/01/16 12:09:48;;;;;;;17.25;12.82;;;8.70;73.10;;;;;;10754498;33;20063;-71
2022/01/16 12:16:11;;;;;;;20.08;14.87;;;8.70;73.10;;;;;;10754137;33;20435;-73
2022/01/16 12:22:14;;;;;;;20.55;12.95;;;8.70;73.20;;;;;;10753778;33;20315;-73
2022/01/16 12:28:22;;;;;;;16.00;12.15;;;8.70;73.10;;;;;;10753906;33;20025;-73
2022/01/16 12:34:42;;;;;;;20.48;15.48;;;8.80;73.00;;;;;;10753453;33;20049;-73
2022/01/16 12:40:53;;;;;;;20.92;13.80;;;8.80;72.30;;;;;;10751621;33;20060;-73
2022/01/16 12:46:58;;;;;;;27.10;14.98;;;8.80;72.30;;;;;;10740667;33;20032;-73
2022/01/16 12:53:01;;;;;;;27.02;17.02;;;8.80;72.20;;;;;;10753253;33;20423;-73
2022/01/16 12:59:11;;;;;;;23.62;17.42;;;8.90;71.70;;;;;;10753275;33;20078;-73
2022/01/16 13:05:20;;;;;;;19.27;13.70;;;8.80;71.20;;;;;;10751996;33;20055;-74
2022/01/16 13:11:23;;;;;;;22.83;16.05;;;8.90;70.90;;;;;;10751239;33;20059;-74
2022/01/16 13:17:26;;;;;;;24.75;17.00;;;9.00;70.80;;;;;;10752672;33;20082;-73
2022/01/16 13:23:28;;;;;;;23.95;16.52;;;9.10;70.90;;;;;;10752346;33;20037;-73
2022/01/16 13:29:30;;;;;;;24.67;14.25;;;9.20;70.20;;;;;;10735805;33;20051;-73
2022/01/16 13:35:33;;;;;;;23.42;15.65;;;9.30;70.00;;;;;;10752391;33;20047;-74
2022/01/16 13:41:42;;;;;;;24.70;14.13;;;9.50;70.00;;;;;;10752068;33;20033;-73
2022/01/16 13:48:05;;;;;;;19.83;14.68;;;9.50;69.80;;;;;;10751927;33;20086;-73
2022/01/16 13:54:14;;;;;;;18.23;12.10;;;9.60;69.80;;;;;;10751265;33;20021;-73
2022/01/16 14:00:19;;;;;;;21.80;16.17;;;9.60;69.80;;;;;;10751510;33;20021;-73
2022/01/16 14:06:23;;;;;;;19.45;14.52;;;9.60;69.90;;;;;;10750217;33;20412;-74
2022/01/16 14:12:25;;;;;;;26.20;16.45;;;9.60;70.10;;;;;;10750337;33;20387;-73
2022/01/16 14:18:40;;;;;;;21.80;14.32;;;9.70;70.10;;;;;;10737890;33;20024;-73
2022/01/16 14:25:19;;;;;;;19.65;13.02;;;9.70;70.10;;;;;;10748398;33;20029;-73
2022/01/16 14:31:21;;;;;;;25.00;19.77;;;10.10;69.90;;;;;;10822252;32;20427;-73
2022/01/16 14:37:45;;;;;;;24.73;18.50;;;10.30;69.10;;;;;;10822646;33;20333;-70
2022/01/16 14:43:54;;;;;;;21.48;13.60;;;10.30;69.00;;;;;;10811545;33;20079;-70
2022/01/16 14:49:56;;;;;;;17.98;12.23;;;10.60;68.90;;;;;;10822043;33;20051;-70
2022/01/16 14:55:59;;;;;;;21.85;14.23;;;10.30;69.30;;;;;;10825837;33;20151;-70
2022/01/16 15:02:02;;;;;;;22.05;15.82;;;10.30;69.20;;;;;;10810142;33;20065;-70
2022/01/16 15:08:04;;;;;;;26.95;15.63;;;10.00;69.20;;;;;;10766711;33;20025;-73
2022/01/16 15:14:09;;;;;;;21.65;14.48;;;9.70;69.80;;;;;;10737813;32;20032;-73
2022/01/16 15:20:20;;;;;;;25.17;16.48;;;9.50;70.20;;;;;;10756366;33;20420;-73
2022/01/16 15:26:34;;;;;;;25.98;15.43;;;9.60;70.10;;;;;;10756003;33;20055;-73
2022/01/16 15:32:36;;;;;;;27.37;15.43;;;9.70;70.20;;;;;;10755820;33;20290;-73
2022/01/16 15:38:40;;;;;;;27.77;15.90;;;9.50;70.70;;;;;;10752104;33;20059;-73
2022/01/16 15:44:43;;;;;;;27.45;21.17;;;9.10;71.20;;;;;;10742325;33;20029;-70
2022/01/16 15:50:45;;;;;;;46.70;21.45;;;8.70;71.80;;;;;;10754623;33;20072;-73
2022/01/16 15:56:48;;;;;;;32.88;22.00;;;8.30;72.30;;;;;;10754876;33;20025;-73
2022/01/16 16:02:51;;;;;;;24.12;17.17;;;8.10;72.70;;;;;;10753687;33;20036;-73
2022/01/16 16:08:53;;;;;;;29.77;18.10;;;7.80;73.10;;;;;;10754086;33;20337;-73
2022/01/16 16:14:58;;;;;;;22.80;16.05;;;7.60;73.40;;;;;;10756037;33;20439;-73
2022/01/16 16:21:00;;;;;;;27.17;19.37;;;7.40;73.70;;;;;;10754263;33;20111;-73
2022/01/16 16:27:03;;;;;;;27.45;17.67;;;7.30;73.90;;;;;;10753300;33;20036;-73
2022/01/16 16:33:05;;;;;;;21.60;16.92;;;7.20;74.20;;;;;;10741041;33;20060;-73
2022/01/16 16:39:07;;;;;;;20.30;15.13;;;7.00;74.30;;;;;;10752736;33;20064;-73
2022/01/16 16:45:10;;;;;;;20.92;14.18;;;6.90;74.50;;;;;;10753121;33;20024;-73
2022/01/16 16:51:12;;;;;;;17.62;11.43;;;6.80;74.60;;;;;;10752638;33;20040;-73
2022/01/16 16:57:15;;;;;;;17.37;10.93;;;6.70;74.70;;;;;;10753465;33;20024;-73
2022/01/16 17:03:19;;;;;;;13.65;9.55;;;6.60;74.90;;;;;;10753273;33;20025;-73
2022/01/16 17:09:22;;;;;;;18.67;12.32;;;6.50;75.00;;;;;;10744199;33;20029;-73
2022/01/16 17:15:26;;;;;;;14.75;9.55;;;6.30;75.10;;;;;;10752642;33;20032;-73
2022/01/16 17:21:28;;;;;;;22.45;14.25;;;6.30;75.30;;;;;;10752581;33;20025;-73
2022/01/16 17:27:30;;;;;;;12.98;8.57;;;6.20;75.40;;;;;;10749144;33;20024;-70
2022/01/16 17:33:34;;;;;;;23.60;14.87;;;6.10;75.60;;;;;;10752468;33;20415;-70
2022/01/16 17:39:39;;;;;;;31.67;19.80;;;6.00;75.70;;;;;;10738441;33;20060;-70
2022/01/16 17:45:43;;;;;;;17.40;12.88;;;5.90;75.90;;;;;;10786926;27;20063;-70
2022/01/16 17:51:45;;;;;;;18.08;11.80;;;5.80;76.20;;;;;;10838303;32;20059;-70
2022/01/16 17:57:48;;;;;;;17.15;11.23;;;5.70;76.40;;;;;;10786085;33;20017;-70
2022/01/16 18:03:50;;;;;;;17.95;12.37;;;5.70;76.40;;;;;;10788018;33;20039;-70
2022/01/16 18:09:53;;;;;;;14.13;9.38;;;5.70;76.50;;;;;;10787860;33;20051;-70
2022/01/16 18:15:56;;;;;;;12.70;9.10;;;5.60;76.50;;;;;;10787189;33;20372;-70
2022/01/16 18:21:58;;;;;;;22.95;17.23;;;5.60;76.60;;;;;;10787228;33;20036;-70
2022/01/16 18:28:01;;;;;;;45.60;34.08;;;5.50;76.70;;;;;;10787492;33;20020;-70
2022/01/16 18:34:03;;;;;;;22.30;17.87;;;5.40;76.90;;;;;;10787521;33;20051;-70
2022/01/16 18:40:06;;;;;;;21.75;16.48;;;5.30;77.20;;;;;;10787301;33;20389;-70
2022/01/16 18:46:09;;;;;;;31.40;24.20;;;5.20;77.30;;;;;;10787074;33;20043;-70
2022/01/16 18:52:12;;;;;;;23.90;17.33;;;5.20;77.30;;;;;;10791372;33;20070;-70
2022/01/16 18:58:14;;;;;;;37.15;26.48;;;5.20;77.40;;;;;;10793421;33;20436;-70
2022/01/16 19:04:20;;;;;;;23.92;19.08;;;5.20;77.50;;;;;;10793155;33;20047;-70
2022/01/16 19:10:24;;;;;;;23.52;16.98;;;5.10;77.60;;;;;;10779873;33;20029;-70
2022/01/16 19:16:29;;;;;;;36.95;26.75;;;5.10;77.70;;;;;;10788740;33;20063;-73
2022/01/16 19:22:36;;;;;;;39.28;31.30;;;5.10;77.70;;;;;;10792650;33;20055;-73
2022/01/16 19:28:39;;;;;;;40.30;29.40;;;5.10;77.70;;;;;;10779582;33;20017;-73
2022/01/16 19:34:43;;;;;;;50.78;36.15;;;5.00;77.90;;;;;;10779308;33;20017;-73
2022/01/16 19:40:45;;;;;;;35.50;25.37;;;4.90;78.00;;;;;;10778986;33;20051;-73
2022/01/16 19:47:19;;;;;;;33.95;24.48;;;4.70;78.30;;;;;;10792103;33;20111;-73
2022/01/16 19:53:21;;;;;;;28.25;23.10;;;4.70;78.50;;;;;;10791774;33;20028;-73
2022/01/16 19:59:23;;;;;;;23.27;19.17;;;4.70;78.50;;;;;;10778482;33;20509;-73
2022/01/16 20:05:26;;;;;;;31.23;24.48;;;4.70;78.50;;;;;;10790753;33;20070;-73
2022/01/16 20:11:30;;;;;;;29.87;20.45;;;4.70;78.50;;;;;;10791302;33;20416;-73
2022/01/16 20:17:32;;;;;;;36.65;26.55;;;4.60;78.50;;;;;;10789267;33;20336;-74
2022/01/16 20:23:34;;;;;;;30.30;23.65;;;4.60;78.70;;;;;;10790955;33;20020;-73
2022/01/16 20:29:36;;;;;;;24.92;21.45;;;4.50;78.70;;;;;;10777641;33;20085;-73
2022/01/16 20:35:38;;;;;;;52.17;38.50;;;4.50;78.60;;;;;;10790584;33;20349;-73
2022/01/16 20:42:05;;;;;;;36.85;27.35;;;4.50;78.80;;;;;;10788996;33;20020;-73
2022/01/16 20:48:07;;;;;;;40.92;32.67;;;4.30;79.00;;;;;;10789853;33;20020;-73
2022/01/16 20:54:09;;;;;;;53.40;43.53;;;4.40;79.20;;;;;;10789609;33;20043;-74
2022/01/16 21:00:29;;;;;;;51.83;40.60;;;4.30;79.30;;;;;;10789982;33;20024;-73
2022/01/16 21:06:34;;;;;;;41.20;32.92;;;4.30;79.50;;;;;;10776633;33;20042;-73
2022/01/16 21:12:36;;;;;;;54.33;41.22;;;4.30;79.60;;;;;;10789470;33;20075;-73
2022/01/16 21:18:42;;;;;;;50.47;34.00;;;4.20;79.50;;;;;;10789362;33;20019;-73
2022/01/16 21:24:48;;;;;;;40.20;30.70;;;4.20;79.60;;;;;;10789240;33;20025;-70
2022/01/16 21:30:52;;;;;;;34.33;28.42;;;4.10;79.90;;;;;;10788632;33;20024;-70
2022/01/16 21:36:54;;;;;;;42.20;30.92;;;4.10;79.70;;;;;;10785127;33;20028;-70
2022/01/16 21:42:57;;;;;;;48.45;35.85;;;4.10;79.90;;;;;;10788667;33;20051;-70
2022/01/16 21:49:00;;;;;;;31.77;23.62;;;4.10;80.00;;;;;;10775582;33;20059;-73
2022/01/16 21:55:03;;;;;;;35.45;27.98;;;4.00;79.90;;;;;;10775448;33;20055;-73
2022/01/16 22:01:06;;;;;;;39.80;32.42;;;3.90;80.00;;;;;;10788137;33;20054;-73
2022/01/16 22:07:09;;;;;;;46.63;33.17;;;3.90;80.00;;;;;;10788087;33;20418;-73
2022/01/16 22:13:16;;;;;;;30.10;24.35;;;4.00;80.00;;;;;;10787886;33;20024;-73
2022/01/16 22:19:21;;;;;;;30.48;22.30;;;4.00;80.00;;;;;;10787937;33;20028;-73
2022/01/16 22:25:24;;;;;;;35.55;24.92;;;3.90;80.00;;;;;;10790304;33;20295;-73
2022/01/16 22:31:26;;;;;;;31.98;26.00;;;3.80;79.90;;;;;;10794182;33;20443;-73
2022/01/16 22:37:28;;;;;;;42.13;30.58;;;3.70;80.20;;;;;;10794002;33;20017;-73
2022/01/16 22:43:30;;;;;;;39.33;28.33;;;3.70;80.10;;;;;;10780830;33;20040;-73
2022/01/16 22:49:33;;;;;;;53.50;38.20;;;3.70;80.10;;;;;;10770542;33;20025;-73
2022/01/16 22:55:35;;;;;;;46.45;35.47;;;3.70;80.40;;;;;;10757049;33;20344;-73
2022/01/16 23:01:39;;;;;;;38.38;29.02;;;3.70;80.50;;;;;;10756870;33;20044;-73
2022/01/16 23:07:41;;;;;;;38.30;31.25;;;3.70;80.50;;;;;;10756541;33;20051;-73
2022/01/16 23:13:43;;;;;;;63.45;47.60;;;3.80;80.50;;;;;;10756425;33;20401;-73
2022/01/16 23:19:46;;;;;;;44.15;27.92;;;3.80;80.50;;;;;;10756294;33;20333;-73
2022/01/16 23:25:54;;;;;;;33.78;25.17;;;3.70;80.40;;;;;;10752093;33;20021;-73
2022/01/16 23:31:56;;;;;;;39.88;27.95;;;3.70;80.40;;;;;;10756036;33;20048;-73
2022/01/16 23:37:59;;;;;;;33.75;25.77;;;3.70;80.50;;;;;;10754894;33;20080;-73
2022/01/16 23:44:04;;;;;;;41.70;30.23;;;3.60;80.40;;;;;;10754633;33;20205;-70
2022/01/16 23:50:09;;;;;;;53.15;39.67;;;3.40;80.50;;;;;;10755300;33;20087;-70
2022/01/16 23:56:13;;;;;;;68.43;52.17;;;3.50;80.80;;;;;;10753010;33;20401;-70
